Meteo Giornale » Osservazioni meteo Stati Uniti (USA) » Caldwell
ore: 14:56 - Osservazioni Meteo Caldwell
Lat. 43° 38' N Lon. 116° 38' W Alt. 740 metri s.l.m.
29 °C
Sereno
Temp. 24 Ore
9 °C
29 °C
Nord
5.5 Km/h
Dew point 1 °C
Umidità 16 %
Visibilità 11 Km
Il sole sorge alle ore 07:09
Il sole tramonta alle ore 20:23
| Data e Ora | Cielo e Fenomeni | T °C | DP °C | Um. % | Pres. hPa | Vis. km | Vento km/h | |
|---|---|---|---|---|---|---|---|---|
| Oggi h: 14:56 | Sereno | 29 | 1 | 16 | 1013 | 11 | N 5.5 | |
| Oggi h: 13:56 | Sereno | 27 | 0 | 17 | 1014 | 10 | N 0 | |
| Oggi h: 12:56 | Sereno | 24 | -1 | 19 | 1015 | 10 | NE 7.4 | |
| Oggi h: 11:56 | Sereno | 22 | 1 | 24 | 1016 | 10 | N 7.4 | |
| Oggi h: 10:56 | Sereno | 20 | 2 | 30 | 1017 | 10 | E 7.4 | |
| Oggi h: 09:56 | Sereno | 16 | 4 | 44 | 1017 | 10 | N 5.5 | |
| Oggi h: 08:56 | Sereno | 13 | 3 | 50 | 1017 | 10 | N 5.5 | |
| Oggi h: 07:56 | Sereno | 9 | 2 | 61 | 1016 | 14 | N 0 | |
| Oggi h: 06:56 | Sereno | 9 | 0 | 53 | 1016 | 10 | N 0 | |
| Oggi h: 05:56 | Sereno | 10 | 0 | 49 | 1016 | 10 | E 7.4 | |
| Oggi h: 04:56 | Sereno | 9 | 3 | 66 | 1016 | 10 | E/SE 9.3 | |
| Oggi h: 03:56 | Sereno | 10 | 4 | 66 | 1016 | 10 | N 5.5 | |
| Oggi h: 02:56 | Sereno | 11 | 5 | 66 | 1016 | 10 | N 5.5 | |
| Oggi h: 01:56 | Sereno | 12 | 4 | 57 | 1016 | 10 | N 0 | |
| Oggi h: 00:56 | Sereno | 11 | 3 | 57 | 1016 | 10 | N/NE 9.3 | |
| Ieri h: 23:56 | Sereno | 13 | 4 | 54 | 1016 | 10 | N 0 | |
| Ieri h: 22:56 | Sereno | 16 | 3 | 41 | 1016 | 10 | N 0 | |
| Ieri h: 21:56 | Sereno | 18 | 1 | 31 | 1016 | 10 | N 0 | |
| Ieri h: 20:56 | Sereno | 20 | 0 | 26 | 1015 | 10 | N 0 | |
| Ieri h: 19:56 | Sereno | 23 | 0 | 21 | 1015 | 10 | N 0 | |
| Ieri h: 18:56 | Sereno | 25 | -1 | 17 | 1016 | 10 | N/NO 9.3 | |
| Ieri h: 17:56 | Sereno | 26 | -1 | 16 | 1016 | 10 | N/NO 14.8 | |
| Ieri h: 16:56 | Sereno | 24 | -1 | 19 | 1017 | 10 | NO 9.3 | |
| Ieri h: 15:56 | Sereno | 24 | 0 | 20 | 1017 | 10 | O/NO 11.1 | |



